sensor_id;sensor_type;location;lat;lon;timestamp;P1;durP1;ratioP1;P2;durP2;ratioP2
76495;SDS011;65329;52.544;4.662;2023-05-21T00:00:36;10.93;;;5.60;;
76495;SDS011;65329;52.544;4.662;2023-05-21T00:03:03;15.45;;;7.40;;
76495;SDS011;65329;52.544;4.662;2023-05-21T00:05:32;14.60;;;7.45;;
76495;SDS011;65329;52.544;4.662;2023-05-21T00:07:59;13.63;;;6.90;;
76495;SDS011;65329;52.544;4.662;2023-05-21T00:10:26;10.77;;;5.00;;
76495;SDS011;65329;52.544;4.662;2023-05-21T00:12:53;9.85;;;5.20;;
76495;SDS011;65329;52.544;4.662;2023-05-21T00:15:20;7.80;;;4.68;;
76495;SDS011;65329;52.544;4.662;2023-05-21T00:17:47;7.47;;;4.35;;
76495;SDS011;65329;52.544;4.662;2023-05-21T00:20:14;9.48;;;5.43;;
76495;SDS011;65329;52.544;4.662;2023-05-21T00:22:45;9.90;;;5.78;;
76495;SDS011;65329;52.544;4.662;2023-05-21T00:25:13;9.02;;;5.70;;
76495;SDS011;65329;52.544;4.662;2023-05-21T00:27:40;11.98;;;6.78;;
76495;SDS011;65329;52.544;4.662;2023-05-21T00:30:08;9.45;;;6.05;;
76495;SDS011;65329;52.544;4.662;2023-05-21T00:32:36;12.98;;;7.28;;
76495;SDS011;65329;52.544;4.662;2023-05-21T00:35:03;9.57;;;5.28;;
76495;SDS011;65329;52.544;4.662;2023-05-21T00:37:31;9.70;;;6.40;;
76495;SDS011;65329;52.544;4.662;2023-05-21T00:40:00;10.48;;;6.18;;
76495;SDS011;65329;52.544;4.662;2023-05-21T00:42:29;11.98;;;6.70;;
76495;SDS011;65329;52.544;4.662;2023-05-21T00:44:56;7.82;;;5.43;;
76495;SDS011;65329;52.544;4.662;2023-05-21T00:47:24;8.10;;;4.85;;
76495;SDS011;65329;52.544;4.662;2023-05-21T00:49:55;8.93;;;4.63;;
76495;SDS011;65329;52.544;4.662;2023-05-21T00:52:22;8.82;;;4.90;;
76495;SDS011;65329;52.544;4.662;2023-05-21T00:54:52;6.95;;;4.68;;
76495;SDS011;65329;52.544;4.662;2023-05-21T00:57:21;6.80;;;4.70;;
76495;SDS011;65329;52.544;4.662;2023-05-21T00:59:51;7.18;;;4.35;;
76495;SDS011;65329;52.544;4.662;2023-05-21T01:02:18;8.00;;;4.18;;
76495;SDS011;65329;52.544;4.662;2023-05-21T01:04:45;7.45;;;4.93;;
76495;SDS011;65329;52.544;4.662;2023-05-21T01:07:14;9.05;;;4.70;;
76495;SDS011;65329;52.544;4.662;2023-05-21T01:09:40;9.43;;;5.07;;
76495;SDS011;65329;52.544;4.662;2023-05-21T01:12:08;12.00;;;5.35;;
76495;SDS011;65329;52.544;4.662;2023-05-21T01:14:37;7.15;;;4.60;;
76495;SDS011;65329;52.544;4.662;2023-05-21T01:17:06;9.90;;;4.93;;
76495;SDS011;65329;52.544;4.662;2023-05-21T01:19:35;7.57;;;4.47;;
76495;SDS011;65329;52.544;4.662;2023-05-21T01:22:04;11.45;;;4.45;;
76495;SDS011;65329;52.544;4.662;2023-05-21T01:24:33;6.40;;;4.30;;
76495;SDS011;65329;52.544;4.662;2023-05-21T01:27:01;11.27;;;5.53;;
76495;SDS011;65329;52.544;4.662;2023-05-21T01:29:29;5.80;;;4.85;;
76495;SDS011;65329;52.544;4.662;2023-05-21T01:32:46;7.43;;;4.40;;
76495;SDS011;65329;52.544;4.662;2023-05-21T01:34:47;7.28;;;4.53;;
76495;SDS011;65329;52.544;4.662;2023-05-21T01:37:28;6.85;;;4.53;;
76495;SDS011;65329;52.544;4.662;2023-05-21T01:40:22;9.55;;;4.10;;
76495;SDS011;65329;52.544;4.662;2023-05-21T01:43:03;6.70;;;4.75;;
76495;SDS011;65329;52.544;4.662;2023-05-21T01:45:32;7.32;;;4.47;;
76495;SDS011;65329;52.544;4.662;2023-05-21T01:48:03;8.70;;;5.60;;
76495;SDS011;65329;52.544;4.662;2023-05-21T01:50:33;6.45;;;4.50;;
76495;SDS011;65329;52.544;4.662;2023-05-21T01:53:06;8.73;;;4.53;;
76495;SDS011;65329;52.544;4.662;2023-05-21T01:55:33;9.93;;;4.65;;
76495;SDS011;65329;52.544;4.662;2023-05-21T01:58:01;8.93;;;5.25;;
76495;SDS011;65329;52.544;4.662;2023-05-21T02:00:29;6.13;;;4.35;;
76495;SDS011;65329;52.544;4.662;2023-05-21T02:02:59;8.73;;;4.53;;
76495;SDS011;65329;52.544;4.662;2023-05-21T02:05:27;6.40;;;4.53;;
76495;SDS011;65329;52.544;4.662;2023-05-21T02:07:54;10.30;;;4.85;;
76495;SDS011;65329;52.544;4.662;2023-05-21T02:10:21;6.22;;;4.60;;
76495;SDS011;65329;52.544;4.662;2023-05-21T02:12:50;8.00;;;5.25;;
76495;SDS011;65329;52.544;4.662;2023-05-21T02:15:17;5.78;;;4.03;;
76495;SDS011;65329;52.544;4.662;2023-05-21T02:17:45;9.13;;;6.00;;
76495;SDS011;65329;52.544;4.662;2023-05-21T02:20:12;6.22;;;5.18;;
76495;SDS011;65329;52.544;4.662;2023-05-21T02:22:40;8.93;;;5.15;;
76495;SDS011;65329;52.544;4.662;2023-05-21T02:25:09;9.85;;;5.13;;
76495;SDS011;65329;52.544;4.662;2023-05-21T02:27:38;8.32;;;5.53;;
76495;SDS011;65329;52.544;4.662;2023-05-21T02:30:11;9.52;;;5.20;;
76495;SDS011;65329;52.544;4.662;2023-05-21T02:32:40;7.88;;;5.10;;
76495;SDS011;65329;52.544;4.662;2023-05-21T02:35:11;7.05;;;5.32;;
76495;SDS011;65329;52.544;4.662;2023-05-21T02:37:38;8.00;;;5.65;;
76495;SDS011;65329;52.544;4.662;2023-05-21T02:40:06;6.80;;;5.38;;
76495;SDS011;65329;52.544;4.662;2023-05-21T02:42:37;7.28;;;5.18;;
76495;SDS011;65329;52.544;4.662;2023-05-21T02:45:08;8.07;;;5.43;;
76495;SDS011;65329;52.544;4.662;2023-05-21T02:47:40;7.93;;;5.63;;
76495;SDS011;65329;52.544;4.662;2023-05-21T02:50:08;9.18;;;5.72;;
76495;SDS011;65329;52.544;4.662;2023-05-21T02:52:42;7.68;;;5.53;;
76495;SDS011;65329;52.544;4.662;2023-05-21T02:55:11;6.63;;;5.22;;
76495;SDS011;65329;52.544;4.662;2023-05-21T02:57:38;8.38;;;6.07;;
76495;SDS011;65329;52.544;4.662;2023-05-21T03:00:05;6.75;;;4.78;;
76495;SDS011;65329;52.544;4.662;2023-05-21T03:02:35;7.95;;;5.85;;
76495;SDS011;65329;52.544;4.662;2023-05-21T03:05:04;5.95;;;5.28;;
76495;SDS011;65329;52.544;4.662;2023-05-21T03:07:32;7.43;;;6.10;;
76495;SDS011;65329;52.544;4.662;2023-05-21T03:10:00;7.97;;;5.53;;
76495;SDS011;65329;52.544;4.662;2023-05-21T03:12:27;8.05;;;5.45;;
76495;SDS011;65329;52.544;4.662;2023-05-21T03:14:54;7.30;;;5.65;;
76495;SDS011;65329;52.544;4.662;2023-05-21T03:17:23;8.18;;;5.10;;
76495;SDS011;65329;52.544;4.662;2023-05-21T03:19:49;8.07;;;5.78;;
76495;SDS011;65329;52.544;4.662;2023-05-21T03:22:17;7.22;;;5.72;;
76495;SDS011;65329;52.544;4.662;2023-05-21T03:24:45;6.65;;;5.47;;
76495;SDS011;65329;52.544;4.662;2023-05-21T03:27:15;7.10;;;5.22;;
76495;SDS011;65329;52.544;4.662;2023-05-21T03:29:43;6.43;;;5.05;;
76495;SDS011;65329;52.544;4.662;2023-05-21T03:32:11;6.50;;;5.15;;
76495;SDS011;65329;52.544;4.662;2023-05-21T03:34:40;6.20;;;5.30;;
76495;SDS011;65329;52.544;4.662;2023-05-21T03:37:14;6.03;;;4.95;;
76495;SDS011;65329;52.544;4.662;2023-05-21T03:39:41;7.82;;;5.20;;
76495;SDS011;65329;52.544;4.662;2023-05-21T03:42:08;8.15;;;5.43;;
76495;SDS011;65329;52.544;4.662;2023-05-21T03:44:44;8.10;;;5.22;;
76495;SDS011;65329;52.544;4.662;2023-05-21T03:47:43;6.40;;;5.45;;
76495;SDS011;65329;52.544;4.662;2023-05-21T03:50:16;7.38;;;5.15;;
76495;SDS011;65329;52.544;4.662;2023-05-21T03:52:43;8.68;;;5.40;;
76495;SDS011;65329;52.544;4.662;2023-05-21T03:55:10;6.50;;;5.25;;
76495;SDS011;65329;52.544;4.662;2023-05-21T03:57:37;6.47;;;5.57;;
76495;SDS011;65329;52.544;4.662;2023-05-21T04:00:04;6.97;;;4.95;;
76495;SDS011;65329;52.544;4.662;2023-05-21T04:02:41;8.63;;;5.25;;
76495;SDS011;65329;52.544;4.662;2023-05-21T04:05:10;8.52;;;5.40;;
76495;SDS011;65329;52.544;4.662;2023-05-21T04:07:38;6.90;;;6.03;;
76495;SDS011;65329;52.544;4.662;2023-05-21T04:10:07;6.38;;;5.13;;
76495;SDS011;65329;52.544;4.662;2023-05-21T04:12:34;8.40;;;5.57;;
76495;SDS011;65329;52.544;4.662;2023-05-21T04:15:02;7.18;;;6.13;;
76495;SDS011;65329;52.544;4.662;2023-05-21T04:17:36;7.97;;;5.30;;
76495;SDS011;65329;52.544;4.662;2023-05-21T04:20:04;7.10;;;5.20;;
76495;SDS011;65329;52.544;4.662;2023-05-21T04:22:31;5.55;;;4.53;;
76495;SDS011;65329;52.544;4.662;2023-05-21T04:24:59;6.90;;;5.15;;
76495;SDS011;65329;52.544;4.662;2023-05-21T04:27:32;6.88;;;5.03;;
76495;SDS011;65329;52.544;4.662;2023-05-21T04:30:00;10.32;;;5.32;;
76495;SDS011;65329;52.544;4.662;2023-05-21T04:32:31;7.50;;;5.43;;
76495;SDS011;65329;52.544;4.662;2023-05-21T04:35:00;6.95;;;5.22;;
76495;SDS011;65329;52.544;4.662;2023-05-21T04:37:28;6.65;;;5.75;;
76495;SDS011;65329;52.544;4.662;2023-05-21T04:39:57;7.88;;;5.93;;
76495;SDS011;65329;52.544;4.662;2023-05-21T04:45:21;8.00;;;5.50;;
76495;SDS011;65329;52.544;4.662;2023-05-21T04:47:52;6.47;;;4.97;;
76495;SDS011;65329;52.544;4.662;2023-05-21T04:50:19;5.75;;;4.65;;
76495;SDS011;65329;52.544;4.662;2023-05-21T04:52:48;9.57;;;5.57;;
76495;SDS011;65329;52.544;4.662;2023-05-21T04:55:15;7.85;;;5.05;;
76495;SDS011;65329;52.544;4.662;2023-05-21T04:57:44;7.68;;;5.72;;
76495;SDS011;65329;52.544;4.662;2023-05-21T05:00:12;8.13;;;5.65;;
76495;SDS011;65329;52.544;4.662;2023-05-21T05:02:42;7.20;;;5.10;;
76495;SDS011;65329;52.544;4.662;2023-05-21T05:05:10;6.68;;;4.60;;
76495;SDS011;65329;52.544;4.662;2023-05-21T05:07:37;6.22;;;5.00;;
76495;SDS011;65329;52.544;4.662;2023-05-21T05:10:04;7.03;;;5.03;;
76495;SDS011;65329;52.544;4.662;2023-05-21T05:12:32;8.73;;;5.30;;
76495;SDS011;65329;52.544;4.662;2023-05-21T05:14:58;5.50;;;4.45;;
76495;SDS011;65329;52.544;4.662;2023-05-21T05:17:27;6.43;;;4.65;;
76495;SDS011;65329;52.544;4.662;2023-05-21T05:19:54;6.15;;;4.60;;
76495;SDS011;65329;52.544;4.662;2023-05-21T05:22:20;5.80;;;4.22;;
76495;SDS011;65329;52.544;4.662;2023-05-21T05:24:48;6.78;;;4.25;;
76495;SDS011;65329;52.544;4.662;2023-05-21T05:27:15;9.25;;;5.13;;
76495;SDS011;65329;52.544;4.662;2023-05-21T05:29:43;7.90;;;4.93;;
76495;SDS011;65329;52.544;4.662;2023-05-21T05:32:10;5.47;;;4.60;;
76495;SDS011;65329;52.544;4.662;2023-05-21T05:34:44;7.20;;;5.13;;
76495;SDS011;65329;52.544;4.662;2023-05-21T05:37:11;8.27;;;4.70;;
76495;SDS011;65329;52.544;4.662;2023-05-21T05:39:38;8.55;;;4.80;;
76495;SDS011;65329;52.544;4.662;2023-05-21T05:42:05;7.85;;;4.78;;
76495;SDS011;65329;52.544;4.662;2023-05-21T05:44:32;7.85;;;4.97;;
76495;SDS011;65329;52.544;4.662;2023-05-21T05:47:00;7.03;;;4.68;;
76495;SDS011;65329;52.544;4.662;2023-05-21T05:49:29;7.60;;;5.10;;
76495;SDS011;65329;52.544;4.662;2023-05-21T05:51:55;8.80;;;4.70;;
76495;SDS011;65329;52.544;4.662;2023-05-21T05:54:22;10.75;;;5.05;;
76495;SDS011;65329;52.544;4.662;2023-05-21T05:56:50;7.55;;;4.38;;
76495;SDS011;65329;52.544;4.662;2023-05-21T05:59:16;8.07;;;4.45;;
76495;SDS011;65329;52.544;4.662;2023-05-21T06:01:48;8.50;;;4.90;;
76495;SDS011;65329;52.544;4.662;2023-05-21T06:04:15;7.90;;;5.40;;
76495;SDS011;65329;52.544;4.662;2023-05-21T06:06:42;9.68;;;5.40;;
76495;SDS011;65329;52.544;4.662;2023-05-21T06:09:09;8.05;;;5.25;;
76495;SDS011;65329;52.544;4.662;2023-05-21T06:11:36;8.50;;;5.18;;
76495;SDS011;65329;52.544;4.662;2023-05-21T06:14:05;8.73;;;5.00;;
76495;SDS011;65329;52.544;4.662;2023-05-21T06:16:32;7.60;;;5.43;;
76495;SDS011;65329;52.544;4.662;2023-05-21T06:18:59;7.15;;;4.95;;
76495;SDS011;65329;52.544;4.662;2023-05-21T06:21:27;7.28;;;4.70;;
76495;SDS011;65329;52.544;4.662;2023-05-21T06:23:54;8.25;;;4.53;;
76495;SDS011;65329;52.544;4.662;2023-05-21T06:26:21;7.38;;;5.10;;
76495;SDS011;65329;52.544;4.662;2023-05-21T06:28:50;7.93;;;4.78;;
76495;SDS011;65329;52.544;4.662;2023-05-21T06:31:17;9.18;;;4.72;;
76495;SDS011;65329;52.544;4.662;2023-05-21T06:33:48;9.18;;;4.97;;
76495;SDS011;65329;52.544;4.662;2023-05-21T06:36:15;11.52;;;4.85;;
76495;SDS011;65329;52.544;4.662;2023-05-21T06:38:49;7.30;;;4.25;;
76495;SDS011;65329;52.544;4.662;2023-05-21T06:41:16;7.07;;;4.10;;
76495;SDS011;65329;52.544;4.662;2023-05-21T06:43:50;8.43;;;4.40;;
76495;SDS011;65329;52.544;4.662;2023-05-21T06:46:46;7.53;;;4.57;;
76495;SDS011;65329;52.544;4.662;2023-05-21T06:49:13;6.10;;;3.80;;
76495;SDS011;65329;52.544;4.662;2023-05-21T06:51:41;7.63;;;4.05;;
76495;SDS011;65329;52.544;4.662;2023-05-21T06:54:10;5.82;;;4.05;;
76495;SDS011;65329;52.544;4.662;2023-05-21T06:56:39;7.53;;;3.88;;
76495;SDS011;65329;52.544;4.662;2023-05-21T06:59:07;6.68;;;3.90;;
76495;SDS011;65329;52.544;4.662;2023-05-21T07:01:35;6.57;;;4.13;;
76495;SDS011;65329;52.544;4.662;2023-05-21T07:04:03;6.40;;;3.90;;
76495;SDS011;65329;52.544;4.662;2023-05-21T07:06:30;9.63;;;3.70;;
76495;SDS011;65329;52.544;4.662;2023-05-21T07:08:57;8.63;;;4.20;;
76495;SDS011;65329;52.544;4.662;2023-05-21T07:11:25;7.30;;;4.05;;
76495;SDS011;65329;52.544;4.662;2023-05-21T07:13:56;8.75;;;4.53;;
76495;SDS011;65329;52.544;4.662;2023-05-21T07:16:25;7.40;;;3.83;;
76495;SDS011;65329;52.544;4.662;2023-05-21T07:18:52;5.15;;;3.95;;
76495;SDS011;65329;52.544;4.662;2023-05-21T07:21:20;9.68;;;3.88;;
76495;SDS011;65329;52.544;4.662;2023-05-21T07:23:49;7.57;;;4.28;;
76495;SDS011;65329;52.544;4.662;2023-05-21T07:26:16;9.25;;;4.00;;
76495;SDS011;65329;52.544;4.662;2023-05-21T07:28:44;7.93;;;4.00;;
76495;SDS011;65329;52.544;4.662;2023-05-21T07:31:11;6.35;;;3.85;;
76495;SDS011;65329;52.544;4.662;2023-05-21T07:33:43;8.45;;;4.05;;
76495;SDS011;65329;52.544;4.662;2023-05-21T07:36:11;8.27;;;4.15;;
76495;SDS011;65329;52.544;4.662;2023-05-21T07:38:39;6.18;;;4.15;;
76495;SDS011;65329;52.544;4.662;2023-05-21T07:41:07;7.38;;;3.85;;
76495;SDS011;65329;52.544;4.662;2023-05-21T07:43:35;6.68;;;4.15;;
76495;SDS011;65329;52.544;4.662;2023-05-21T07:46:02;8.27;;;3.97;;
76495;SDS011;65329;52.544;4.662;2023-05-21T07:48:29;7.47;;;3.95;;
76495;SDS011;65329;52.544;4.662;2023-05-21T07:51:00;9.65;;;4.32;;
76495;SDS011;65329;52.544;4.662;2023-05-21T07:53:27;8.85;;;5.20;;
76495;SDS011;65329;52.544;4.662;2023-05-21T07:56:00;8.80;;;4.30;;
76495;SDS011;65329;52.544;4.662;2023-05-21T07:58:28;8.98;;;4.15;;
76495;SDS011;65329;52.544;4.662;2023-05-21T08:00:57;6.90;;;4.88;;
76495;SDS011;65329;52.544;4.662;2023-05-21T08:03:25;7.72;;;3.80;;
76495;SDS011;65329;52.544;4.662;2023-05-21T08:05:53;6.63;;;4.60;;
76495;SDS011;65329;52.544;4.662;2023-05-21T08:08:20;6.05;;;4.28;;
76495;SDS011;65329;52.544;4.662;2023-05-21T08:10:49;10.10;;;4.68;;
76495;SDS011;65329;52.544;4.662;2023-05-21T08:13:17;6.00;;;4.30;;
76495;SDS011;65329;52.544;4.662;2023-05-21T08:15:46;7.38;;;4.30;;
76495;SDS011;65329;52.544;4.662;2023-05-21T08:18:19;8.45;;;4.30;;
76495;SDS011;65329;52.544;4.662;2023-05-21T08:20:46;7.20;;;4.30;;
76495;SDS011;65329;52.544;4.662;2023-05-21T08:23:16;5.97;;;4.30;;
76495;SDS011;65329;52.544;4.662;2023-05-21T08:28:15;9.98;;;4.45;;
76495;SDS011;65329;52.544;4.662;2023-05-21T08:30:42;8.25;;;4.50;;
76495;SDS011;65329;52.544;4.662;2023-05-21T08:33:09;6.85;;;3.95;;
76495;SDS011;65329;52.544;4.662;2023-05-21T08:35:37;7.00;;;4.53;;
76495;SDS011;65329;52.544;4.662;2023-05-21T08:38:16;5.35;;;4.05;;
76495;SDS011;65329;52.544;4.662;2023-05-21T08:40:58;7.95;;;4.65;;
76495;SDS011;65329;52.544;4.662;2023-05-21T08:43:28;7.63;;;4.43;;
76495;SDS011;65329;52.544;4.662;2023-05-21T08:45:56;7.55;;;4.70;;
76495;SDS011;65329;52.544;4.662;2023-05-21T08:48:30;8.27;;;4.10;;
76495;SDS011;65329;52.544;4.662;2023-05-21T08:50:58;8.90;;;4.53;;
76495;SDS011;65329;52.544;4.662;2023-05-21T08:53:31;6.07;;;4.25;;
76495;SDS011;65329;52.544;4.662;2023-05-21T08:56:01;7.05;;;4.30;;
76495;SDS011;65329;52.544;4.662;2023-05-21T08:58:41;8.70;;;4.63;;
76495;SDS011;65329;52.544;4.662;2023-05-21T09:01:14;8.00;;;4.95;;
76495;SDS011;65329;52.544;4.662;2023-05-21T09:03:48;6.22;;;4.13;;
76495;SDS011;65329;52.544;4.662;2023-05-21T09:06:18;5.45;;;3.95;;
76495;SDS011;65329;52.544;4.662;2023-05-21T09:08:48;7.82;;;4.35;;
76495;SDS011;65329;52.544;4.662;2023-05-21T09:11:34;4.95;;;3.80;;
76495;SDS011;65329;52.544;4.662;2023-05-21T09:14:01;8.13;;;4.85;;
76495;SDS011;65329;52.544;4.662;2023-05-21T09:16:49;7.20;;;4.40;;
76495;SDS011;65329;52.544;4.662;2023-05-21T09:19:21;5.45;;;3.92;;
76495;SDS011;65329;52.544;4.662;2023-05-21T09:21:50;7.50;;;3.63;;
76495;SDS011;65329;52.544;4.662;2023-05-21T09:24:20;6.10;;;3.92;;
76495;SDS011;65329;52.544;4.662;2023-05-21T09:26:51;6.78;;;4.32;;
76495;SDS011;65329;52.544;4.662;2023-05-21T09:29:18;5.13;;;3.58;;
76495;SDS011;65329;52.544;4.662;2023-05-21T09:31:45;6.93;;;4.05;;
76495;SDS011;65329;52.544;4.662;2023-05-21T09:34:14;6.00;;;4.25;;
76495;SDS011;65329;52.544;4.662;2023-05-21T09:36:43;7.65;;;3.97;;
76495;SDS011;65329;52.544;4.662;2023-05-21T09:39:11;8.60;;;3.75;;
76495;SDS011;65329;52.544;4.662;2023-05-21T09:41:55;6.20;;;4.05;;
76495;SDS011;65329;52.544;4.662;2023-05-21T09:44:24;8.15;;;4.45;;
76495;SDS011;65329;52.544;4.662;2023-05-21T09:46:55;8.02;;;3.60;;
76495;SDS011;65329;52.544;4.662;2023-05-21T09:49:23;5.50;;;3.53;;
76495;SDS011;65329;52.544;4.662;2023-05-21T09:51:56;6.13;;;4.15;;
76495;SDS011;65329;52.544;4.662;2023-05-21T09:54:24;5.88;;;3.75;;
76495;SDS011;65329;52.544;4.662;2023-05-21T09:56:52;5.40;;;4.00;;
76495;SDS011;65329;52.544;4.662;2023-05-21T09:59:19;4.07;;;3.45;;
76495;SDS011;65329;52.544;4.662;2023-05-21T10:01:48;4.03;;;3.47;;
76495;SDS011;65329;52.544;4.662;2023-05-21T10:04:17;6.00;;;3.72;;
76495;SDS011;65329;52.544;4.662;2023-05-21T10:06:44;6.65;;;3.35;;
76495;SDS011;65329;52.544;4.662;2023-05-21T10:09:13;7.97;;;4.00;;
76495;SDS011;65329;52.544;4.662;2023-05-21T10:11:44;5.53;;;3.65;;
76495;SDS011;65329;52.544;4.662;2023-05-21T10:14:18;4.85;;;3.88;;
76495;SDS011;65329;52.544;4.662;2023-05-21T10:16:47;5.60;;;3.65;;
76495;SDS011;65329;52.544;4.662;2023-05-21T10:19:19;6.75;;;4.07;;
76495;SDS011;65329;52.544;4.662;2023-05-21T10:21:48;6.57;;;3.45;;
76495;SDS011;65329;52.544;4.662;2023-05-21T10:24:18;8.18;;;4.30;;
76495;SDS011;65329;52.544;4.662;2023-05-21T10:26:45;6.85;;;3.72;;
76495;SDS011;65329;52.544;4.662;2023-05-21T10:29:14;7.15;;;3.53;;
76495;SDS011;65329;52.544;4.662;2023-05-21T10:31:45;5.07;;;3.78;;
76495;SDS011;65329;52.544;4.662;2023-05-21T10:34:15;6.47;;;3.78;;
76495;SDS011;65329;52.544;4.662;2023-05-21T10:36:42;6.00;;;3.88;;
76495;SDS011;65329;52.544;4.662;2023-05-21T10:39:10;5.63;;;4.05;;
76495;SDS011;65329;52.544;4.662;2023-05-21T10:41:44;6.97;;;3.50;;
76495;SDS011;65329;52.544;4.662;2023-05-21T10:44:27;6.40;;;3.38;;
76495;SDS011;65329;52.544;4.662;2023-05-21T10:47:02;5.07;;;3.70;;
76495;SDS011;65329;52.544;4.662;2023-05-21T11:00:58;4.10;;;3.38;;
76495;SDS011;65329;52.544;4.662;2023-05-21T11:03:28;6.78;;;4.10;;
76495;SDS011;65329;52.544;4.662;2023-05-21T11:06:00;7.43;;;3.97;;
76495;SDS011;65329;52.544;4.662;2023-05-21T11:08:29;5.85;;;4.22;;
76495;SDS011;65329;52.544;4.662;2023-05-21T11:11:04;6.25;;;3.50;;
76495;SDS011;65329;52.544;4.662;2023-05-21T11:14:06;8.00;;;3.58;;
76495;SDS011;65329;52.544;4.662;2023-05-21T11:16:24;6.07;;;3.50;;
76495;SDS011;65329;52.544;4.662;2023-05-21T11:21:21;6.78;;;3.67;;
76495;SDS011;65329;52.544;4.662;2023-05-21T11:23:51;7.00;;;4.05;;
76495;SDS011;65329;52.544;4.662;2023-05-21T11:26:20;7.30;;;3.60;;
76495;SDS011;65329;52.544;4.662;2023-05-21T11:31:31;7.32;;;4.32;;
76495;SDS011;65329;52.544;4.662;2023-05-21T11:36:37;7.13;;;3.67;;
76495;SDS011;65329;52.544;4.662;2023-05-21T11:39:12;5.55;;;3.55;;
76495;SDS011;65329;52.544;4.662;2023-05-21T11:41:50;7.05;;;3.55;;
76495;SDS011;65329;52.544;4.662;2023-05-21T11:44:44;5.47;;;3.65;;
76495;SDS011;65329;52.544;4.662;2023-05-21T11:47:13;6.68;;;3.80;;
76495;SDS011;65329;52.544;4.662;2023-05-21T11:49:41;6.45;;;3.63;;
76495;SDS011;65329;52.544;4.662;2023-05-21T11:52:08;5.25;;;3.70;;
76495;SDS011;65329;52.544;4.662;2023-05-21T11:57:17;7.00;;;3.75;;
76495;SDS011;65329;52.544;4.662;2023-05-21T11:59:45;4.95;;;4.00;;
76495;SDS011;65329;52.544;4.662;2023-05-21T12:02:15;6.13;;;3.53;;
76495;SDS011;65329;52.544;4.662;2023-05-21T12:04:44;10.95;;;4.18;;
76495;SDS011;65329;52.544;4.662;2023-05-21T12:07:14;6.57;;;3.65;;
76495;SDS011;65329;52.544;4.662;2023-05-21T12:09:47;6.93;;;4.18;;
76495;SDS011;65329;52.544;4.662;2023-05-21T12:12:19;7.18;;;4.40;;
76495;SDS011;65329;52.544;4.662;2023-05-21T12:14:48;6.95;;;4.22;;
76495;SDS011;65329;52.544;4.662;2023-05-21T12:17:22;7.30;;;4.30;;
76495;SDS011;65329;52.544;4.662;2023-05-21T12:19:52;8.40;;;4.35;;
76495;SDS011;65329;52.544;4.662;2023-05-21T12:22:19;6.78;;;3.88;;
76495;SDS011;65329;52.544;4.662;2023-05-21T12:24:46;7.25;;;4.05;;
76495;SDS011;65329;52.544;4.662;2023-05-21T12:27:14;5.75;;;3.42;;
76495;SDS011;65329;52.544;4.662;2023-05-21T12:29:45;6.60;;;4.10;;
76495;SDS011;65329;52.544;4.662;2023-05-21T12:32:14;7.38;;;4.32;;
76495;SDS011;65329;52.544;4.662;2023-05-21T12:34:42;5.07;;;3.90;;
76495;SDS011;65329;52.544;4.662;2023-05-21T12:37:21;4.53;;;3.72;;
76495;SDS011;65329;52.544;4.662;2023-05-21T12:39:49;5.45;;;4.13;;
76495;SDS011;65329;52.544;4.662;2023-05-21T12:42:23;5.30;;;4.80;;
76495;SDS011;65329;52.544;4.662;2023-05-21T12:45:07;5.85;;;3.42;;
76495;SDS011;65329;52.544;4.662;2023-05-21T12:47:35;5.07;;;3.97;;
76495;SDS011;65329;52.544;4.662;2023-05-21T12:50:03;7.15;;;3.50;;
76495;SDS011;65329;52.544;4.662;2023-05-21T12:52:33;8.50;;;3.95;;
76495;SDS011;65329;52.544;4.662;2023-05-21T12:55:00;5.55;;;4.05;;
76495;SDS011;65329;52.544;4.662;2023-05-21T12:57:37;4.95;;;4.00;;
76495;SDS011;65329;52.544;4.662;2023-05-21T13:00:05;5.90;;;3.72;;
76495;SDS011;65329;52.544;4.662;2023-05-21T13:02:34;5.78;;;3.63;;
76495;SDS011;65329;52.544;4.662;2023-05-21T13:05:08;4.80;;;3.70;;
76495;SDS011;65329;52.544;4.662;2023-05-21T13:07:37;6.75;;;3.50;;
76495;SDS011;65329;52.544;4.662;2023-05-21T13:10:05;4.78;;;3.38;;
76495;SDS011;65329;52.544;4.662;2023-05-21T13:12:33;7.88;;;3.97;;
76495;SDS011;65329;52.544;4.662;2023-05-21T13:15:02;6.68;;;4.55;;
76495;SDS011;65329;52.544;4.662;2023-05-21T13:17:30;8.05;;;4.20;;
76495;SDS011;65329;52.544;4.662;2023-05-21T13:22:44;6.32;;;3.83;;
76495;SDS011;65329;52.544;4.662;2023-05-21T13:25:13;10.10;;;4.57;;
76495;SDS011;65329;52.544;4.662;2023-05-21T13:27:41;6.38;;;4.28;;
76495;SDS011;65329;52.544;4.662;2023-05-21T13:30:09;4.63;;;3.40;;
76495;SDS011;65329;52.544;4.662;2023-05-21T13:32:39;5.55;;;3.20;;
76495;SDS011;65329;52.544;4.662;2023-05-21T13:35:07;5.85;;;3.45;;
76495;SDS011;65329;52.544;4.662;2023-05-21T13:37:35;6.30;;;3.85;;
76495;SDS011;65329;52.544;4.662;2023-05-21T13:40:03;6.57;;;3.90;;
76495;SDS011;65329;52.544;4.662;2023-05-21T13:42:32;6.25;;;3.85;;
76495;SDS011;65329;52.544;4.662;2023-05-21T13:45:00;5.55;;;2.88;;
76495;SDS011;65329;52.544;4.662;2023-05-21T13:47:26;6.18;;;4.88;;
76495;SDS011;65329;52.544;4.662;2023-05-21T13:49:53;5.80;;;3.65;;
76495;SDS011;65329;52.544;4.662;2023-05-21T13:52:20;6.68;;;3.97;;
76495;SDS011;65329;52.544;4.662;2023-05-21T13:54:48;5.05;;;3.45;;
76495;SDS011;65329;52.544;4.662;2023-05-21T13:57:15;7.55;;;4.22;;
76495;SDS011;65329;52.544;4.662;2023-05-21T13:59:42;5.22;;;3.28;;
76495;SDS011;65329;52.544;4.662;2023-05-21T14:02:09;5.60;;;3.58;;
76495;SDS011;65329;52.544;4.662;2023-05-21T14:04:36;5.45;;;3.13;;
76495;SDS011;65329;52.544;4.662;2023-05-21T14:07:05;5.57;;;4.10;;
76495;SDS011;65329;52.544;4.662;2023-05-21T14:09:32;6.03;;;3.20;;
76495;SDS011;65329;52.544;4.662;2023-05-21T14:11:59;7.32;;;3.20;;
76495;SDS011;65329;52.544;4.662;2023-05-21T14:14:26;6.07;;;3.17;;
76495;SDS011;65329;52.544;4.662;2023-05-21T14:16:53;6.78;;;3.28;;
76495;SDS011;65329;52.544;4.662;2023-05-21T14:19:20;7.25;;;3.10;;
76495;SDS011;65329;52.544;4.662;2023-05-21T14:21:50;7.97;;;3.30;;
76495;SDS011;65329;52.544;4.662;2023-05-21T14:24:17;7.68;;;3.33;;
76495;SDS011;65329;52.544;4.662;2023-05-21T14:26:44;5.85;;;3.22;;
76495;SDS011;65329;52.544;4.662;2023-05-21T14:29:11;7.30;;;3.88;;
76495;SDS011;65329;52.544;4.662;2023-05-21T14:31:38;5.90;;;3.80;;
76495;SDS011;65329;52.544;4.662;2023-05-21T14:34:05;5.75;;;3.00;;
76495;SDS011;65329;52.544;4.662;2023-05-21T14:36:35;4.15;;;2.80;;
76495;SDS011;65329;52.544;4.662;2023-05-21T14:39:02;5.68;;;2.95;;
76495;SDS011;65329;52.544;4.662;2023-05-21T14:41:29;4.22;;;2.50;;
76495;SDS011;65329;52.544;4.662;2023-05-21T14:43:56;5.70;;;3.10;;
76495;SDS011;65329;52.544;4.662;2023-05-21T14:46:24;4.63;;;3.47;;
76495;SDS011;65329;52.544;4.662;2023-05-21T14:48:51;6.60;;;3.40;;
76495;SDS011;65329;52.544;4.662;2023-05-21T14:51:18;9.70;;;4.80;;
76495;SDS011;65329;52.544;4.662;2023-05-21T14:53:45;6.25;;;3.65;;
76495;SDS011;65329;52.544;4.662;2023-05-21T14:56:12;8.15;;;4.47;;
76495;SDS011;65329;52.544;4.662;2023-05-21T14:58:39;5.35;;;3.60;;
76495;SDS011;65329;52.544;4.662;2023-05-21T15:01:06;5.72;;;3.83;;
76495;SDS011;65329;52.544;4.662;2023-05-21T15:03:34;4.60;;;3.30;;
76495;SDS011;65329;52.544;4.662;2023-05-21T15:06:01;5.65;;;3.72;;
76495;SDS011;65329;52.544;4.662;2023-05-21T15:08:28;5.32;;;3.70;;
76495;SDS011;65329;52.544;4.662;2023-05-21T15:10:55;10.90;;;4.47;;
76495;SDS011;65329;52.544;4.662;2023-05-21T15:13:22;5.38;;;3.85;;
76495;SDS011;65329;52.544;4.662;2023-05-21T15:15:49;9.88;;;3.40;;
76495;SDS011;65329;52.544;4.662;2023-05-21T15:18:17;6.65;;;4.53;;
76495;SDS011;65329;52.544;4.662;2023-05-21T15:20:44;5.40;;;3.55;;
76495;SDS011;65329;52.544;4.662;2023-05-21T15:23:11;4.05;;;3.28;;
76495;SDS011;65329;52.544;4.662;2023-05-21T15:25:43;10.68;;;3.80;;
76495;SDS011;65329;52.544;4.662;2023-05-21T15:28:10;5.35;;;4.20;;
76495;SDS011;65329;52.544;4.662;2023-05-21T15:30:38;8.32;;;4.43;;